createdAt,value
2016-04-15T00:00:51.488Z,23.15
2016-04-15T00:01:51.507Z,23.22
2016-04-15T00:02:51.509Z,23.16
2016-04-15T00:03:51.512Z,23.12
2016-04-15T00:04:51.515Z,23.15
2016-04-15T00:05:51.517Z,23.13
2016-04-15T00:06:51.535Z,23.13
2016-04-15T00:07:51.538Z,23.16
2016-04-15T00:08:51.540Z,23.17
2016-04-15T00:09:51.543Z,23.13
2016-04-15T00:10:51.562Z,23.16
2016-04-15T00:11:51.565Z,23.13
2016-04-15T00:12:51.568Z,23.09
2016-04-15T00:13:51.570Z,23.16
2016-04-15T00:14:51.589Z,23.07
2016-04-15T00:15:51.591Z,23.17
2016-04-15T00:16:51.594Z,23.16
2016-04-15T00:17:51.597Z,23.13
2016-04-15T00:18:51.599Z,23.17
2016-04-15T00:19:51.602Z,23.17
2016-04-15T00:20:51.619Z,23.2
2016-04-15T00:21:51.622Z,23.16
2016-04-15T00:22:51.641Z,23.17
2016-04-15T00:23:51.627Z,23.16
2016-04-15T00:24:51.646Z,23.13
2016-04-15T00:25:51.649Z,23.02
2016-04-15T00:26:51.652Z,23.07
2016-04-15T00:27:51.686Z,23
2016-04-15T00:28:51.657Z,23.15
2016-04-15T00:29:51.691Z,23.09
2016-04-15T00:30:51.537Z,23.07
2016-04-15T00:31:51.696Z,23.1
2016-04-15T00:32:51.700Z,23.12
2016-04-15T00:33:51.688Z,23.04
2016-04-15T00:34:51.721Z,23.12
2016-04-15T00:35:51.716Z,23.05
2016-04-15T00:36:51.718Z,23.1
2016-04-15T00:37:51.737Z,23.02
2016-04-15T00:38:51.739Z,23.04
2016-04-15T00:39:51.742Z,23.02
2016-04-15T00:40:51.760Z,23.04
2016-04-15T00:41:51.762Z,23.05
2016-04-15T00:42:51.765Z,23
2016-04-15T00:43:51.767Z,23.01
2016-04-15T00:44:51.973Z,22.97
2016-04-15T00:45:51.789Z,23
2016-04-15T00:46:51.776Z,22.98
2016-04-15T00:47:51.779Z,23.04
2016-04-15T00:48:51.782Z,23.05
2016-04-15T00:49:51.784Z,23.01
2016-04-15T00:50:51.787Z,23.01
2016-04-15T00:51:51.806Z,23.04
2016-04-15T00:52:51.808Z,23.04
2016-04-15T00:53:51.826Z,22.98
2016-04-15T00:54:51.828Z,23
2016-04-15T00:55:51.831Z,23.04
2016-04-15T00:56:51.849Z,23.04
2016-04-15T00:57:51.836Z,23
2016-04-15T00:58:51.839Z,22.98
2016-04-15T00:59:51.841Z,23
2016-04-15T01:00:51.860Z,23
2016-04-15T01:01:51.863Z,23.05
2016-04-15T01:02:51.866Z,23.02
2016-04-15T01:03:51.869Z,23.02
2016-04-15T01:04:51.887Z,23.01
2016-04-15T01:05:51.890Z,23.01
2016-04-15T01:06:51.907Z,23.02
2016-04-15T01:07:51.910Z,22.97
2016-04-15T01:08:51.913Z,23.1
2016-04-15T01:09:51.916Z,23
2016-04-15T01:10:51.918Z,23.01
2016-04-15T01:11:51.921Z,22.98
2016-04-15T01:12:51.923Z,23
2016-04-15T01:13:51.942Z,23.02
2016-04-15T01:14:51.945Z,22.95
2016-04-15T01:15:51.947Z,22.97
2016-04-15T01:16:51.951Z,22.98
2016-04-15T01:17:51.953Z,22.98
2016-04-15T01:18:51.972Z,22.95
2016-04-15T01:19:51.990Z,22.94
2016-04-15T01:20:51.977Z,22.98
2016-04-15T01:21:51.995Z,22.98
2016-04-15T01:22:51.982Z,22.95
2016-04-15T01:23:52.000Z,22.98
2016-04-15T01:24:52.003Z,22.95
2016-04-15T01:25:52.005Z,23.04
2016-04-15T01:26:52.025Z,22.98
2016-04-15T01:27:52.027Z,23
2016-04-15T01:28:52.030Z,22.94
2016-04-15T01:29:52.283Z,22.97
2016-04-15T01:30:52.035Z,22.92
2016-04-15T01:31:52.038Z,22.9
2016-04-15T01:32:52.055Z,22.97
2016-04-15T01:33:52.058Z,22.83
2016-04-15T01:34:52.061Z,22.85
2016-04-15T01:35:52.064Z,22.92
2016-04-15T01:36:52.066Z,22.9
2016-04-15T01:37:52.069Z,22.85
2016-04-15T01:38:52.087Z,22.95
2016-04-15T01:39:52.090Z,22.85
2016-04-15T01:40:52.093Z,22.94
2016-04-15T01:41:52.111Z,22.91
2016-04-15T01:42:52.115Z,22.92
2016-04-15T01:43:52.117Z,22.86
2016-04-15T01:44:52.245Z,22.92
2016-04-15T01:45:52.123Z,22.9
2016-04-15T01:46:52.140Z,22.86
2016-04-15T01:47:52.159Z,22.9
2016-04-15T01:48:52.145Z,22.88
2016-04-15T01:49:52.148Z,22.82
2016-04-15T01:50:52.151Z,22.86
2016-04-15T01:51:52.153Z,22.83
2016-04-15T01:52:52.172Z,22.86
2016-04-15T01:53:52.174Z,22.82
2016-04-15T01:54:52.193Z,22.79
2016-04-15T01:55:52.180Z,22.88
2016-04-15T01:56:52.198Z,22.85
2016-04-15T01:57:52.202Z,22.82
2016-04-15T01:58:52.204Z,22.79
2016-04-15T01:59:52.332Z,22.8
2016-04-15T02:00:52.210Z,22.8
2016-04-15T02:01:52.228Z,22.77
2016-04-15T02:02:52.230Z,22.82
2016-04-15T02:03:52.233Z,22.82
2016-04-15T02:04:52.235Z,22.75
2016-04-15T02:05:52.238Z,22.72
2016-04-15T02:06:52.257Z,22.8
2016-04-15T02:07:52.260Z,22.83
2016-04-15T02:08:52.263Z,22.75
2016-04-15T02:09:52.280Z,22.77
2016-04-15T02:10:52.268Z,22.76
2016-04-15T02:11:52.286Z,22.77
2016-04-15T02:12:52.288Z,22.82
2016-04-15T02:13:52.291Z,22.79
2016-04-15T02:14:52.356Z,22.79
2016-04-15T02:15:52.312Z,22.8
2016-04-15T02:16:52.315Z,22.83
2016-04-15T02:17:52.317Z,22.91
2016-04-15T02:18:52.320Z,22.88
2016-04-15T02:19:52.322Z,22.85
2016-04-15T02:20:52.325Z,22.9
2016-04-15T02:21:52.328Z,22.9
2016-04-15T02:22:52.346Z,22.88
2016-04-15T02:23:52.350Z,22.92
2016-04-15T02:24:52.352Z,22.91
2016-04-15T02:25:52.355Z,22.86
2016-04-15T02:26:52.217Z,22.86
2016-04-15T02:27:52.375Z,22.88
2016-04-15T02:28:52.378Z,22.95
2016-04-15T02:29:52.491Z,22.9
2016-04-15T02:30:52.399Z,22.88
2016-04-15T02:31:52.402Z,22.94
2016-04-15T02:32:52.405Z,22.94
2016-04-15T02:33:52.407Z,22.95
2016-04-15T02:34:52.410Z,23.07
2016-04-15T02:35:52.428Z,22.98
2016-04-15T02:36:52.415Z,22.94
2016-04-15T02:37:52.418Z,22.97
2016-04-15T02:38:52.437Z,22.98
2016-04-15T02:39:52.440Z,23.01
2016-04-15T02:40:52.457Z,22.97
2016-04-15T02:41:52.460Z,23
2016-04-15T02:42:52.479Z,23.09
2016-04-15T02:43:52.465Z,23.02
2016-04-15T02:44:52.562Z,23.09
2016-04-15T02:45:52.470Z,23.04
2016-04-15T02:46:52.473Z,23.02
2016-04-15T02:47:52.492Z,23.05
2016-04-15T02:48:52.510Z,22.97
2016-04-15T02:49:52.498Z,23
2016-04-15T02:50:52.516Z,22.98
2016-04-15T02:51:52.518Z,22.98
2016-04-15T02:52:52.521Z,23.04
2016-04-15T02:53:52.524Z,22.95
2016-04-15T02:54:52.526Z,23.01
2016-04-15T02:55:52.545Z,22.98
2016-04-15T02:56:52.547Z,22.97
2016-04-15T02:57:52.566Z,22.92
2016-04-15T02:58:52.569Z,22.98
2016-04-15T02:59:52.571Z,22.98
2016-04-15T03:00:52.589Z,22.97
2016-04-15T03:01:52.577Z,22.92
2016-04-15T03:02:52.611Z,23.02
2016-04-15T03:03:52.582Z,22.98
2016-04-15T03:04:52.585Z,22.88
2016-04-15T03:05:52.603Z,22.98
2016-04-15T03:06:52.605Z,22.92
2016-04-15T03:07:52.608Z,22.98
2016-04-15T03:08:52.611Z,22.94
2016-04-15T03:09:52.629Z,22.95
2016-04-15T03:10:52.632Z,22.85
2016-04-15T03:11:52.634Z,22.9
2016-04-15T03:12:52.653Z,22.95
2016-04-15T03:13:52.656Z,22.95
2016-04-15T03:14:52.642Z,22.88
2016-04-15T03:15:52.676Z,22.98
2016-04-15T03:16:52.664Z,22.94
2016-04-15T03:17:52.666Z,22.97
2016-04-15T03:18:52.669Z,22.95
2016-04-15T03:19:52.687Z,22.94
2016-04-15T03:20:52.706Z,22.91
2016-04-15T03:21:52.693Z,22.88
2016-04-15T03:22:52.711Z,22.94
2016-04-15T03:23:52.714Z,22.83
2016-04-15T03:24:52.717Z,22.91
2016-04-15T03:25:52.719Z,22.94
2016-04-15T03:26:52.722Z,22.88
2016-04-15T03:27:52.739Z,22.95
2016-04-15T03:28:52.727Z,22.83
2016-04-15T03:29:52.761Z,22.98
2016-04-15T03:30:52.748Z,22.83
2016-04-15T03:31:52.751Z,22.88
2016-04-15T03:32:52.769Z,22.91
2016-04-15T03:33:52.788Z,22.88
2016-04-15T03:34:52.775Z,22.92
2016-04-15T03:35:52.777Z,22.9
2016-04-15T03:36:52.780Z,22.9
2016-04-15T03:37:52.782Z,22.98
2016-04-15T03:38:52.785Z,22.97
2016-04-15T03:39:52.647Z,22.95
2016-04-15T03:40:52.807Z,22.88
2016-04-15T03:41:52.809Z,22.95
2016-04-15T03:42:52.843Z,22.92
2016-04-15T03:43:52.830Z,22.86
2016-04-15T03:44:52.832Z,22.86
2016-04-15T03:45:52.835Z,22.92
2016-04-15T03:46:52.838Z,22.98
2016-04-15T03:47:52.841Z,22.94
2016-04-15T03:48:52.859Z,22.85
2016-04-15T03:49:52.862Z,22.9
2016-04-15T03:50:52.864Z,22.9
2016-04-15T03:51:52.867Z,22.98
2016-04-15T03:52:52.886Z,22.95
2016-04-15T03:53:52.888Z,22.88
2016-04-15T03:54:52.891Z,22.9
2016-04-15T03:55:52.894Z,22.98
2016-04-15T03:56:52.896Z,22.88
2016-04-15T03:57:52.899Z,22.95
2016-04-15T03:58:52.916Z,22.88
2016-04-15T03:59:52.919Z,22.85
2016-04-15T04:00:52.922Z,22.92
2016-04-15T04:01:52.925Z,22.9
2016-04-15T04:02:52.928Z,22.9
2016-04-15T04:03:52.946Z,22.92
2016-04-15T04:04:52.949Z,22.9
2016-04-15T04:05:52.967Z,22.92
2016-04-15T04:06:52.969Z,22.9
2016-04-15T04:07:52.972Z,22.95
2016-04-15T04:08:52.960Z,22.91
2016-04-15T04:09:52.821Z,22.86
2016-04-15T04:10:52.980Z,22.9
2016-04-15T04:11:52.983Z,22.88
2016-04-15T04:12:53.002Z,22.82
2016-04-15T04:13:53.004Z,22.92
2016-04-15T04:14:53.007Z,22.94
2016-04-15T04:15:53.010Z,22.86
2016-04-15T04:16:53.012Z,22.9
2016-04-15T04:17:53.015Z,22.95
2016-04-15T04:18:53.034Z,22.88
2016-04-15T04:19:53.036Z,22.94
2016-04-15T04:20:53.039Z,22.97
2016-04-15T04:21:53.057Z,22.9
2016-04-15T04:22:53.059Z,22.9
2016-04-15T04:23:53.062Z,22.95
2016-04-15T04:24:53.158Z,22.92
2016-04-15T04:25:53.083Z,22.91
2016-04-15T04:26:53.070Z,22.97
2016-04-15T04:27:53.073Z,22.94
2016-04-15T04:28:53.092Z,22.86
2016-04-15T04:29:53.142Z,22.92
2016-04-15T04:30:53.113Z,22.86
2016-04-15T04:31:53.100Z,22.9
2016-04-15T04:32:53.119Z,22.83
2016-04-15T04:33:53.121Z,22.86
2016-04-15T04:34:53.124Z,22.86
2016-04-15T04:35:53.126Z,22.95
2016-04-15T04:36:53.129Z,22.95
2016-04-15T04:37:53.147Z,22.91
2016-04-15T04:38:53.149Z,22.86
2016-04-15T04:39:53.152Z,22.85
2016-04-15T04:40:53.154Z,22.88
2016-04-15T04:41:53.157Z,22.91
2016-04-15T04:42:53.176Z,22.94
2016-04-15T04:43:53.179Z,22.98
2016-04-15T04:44:53.182Z,23.02
2016-04-15T04:45:53.199Z,23.02
2016-04-15T04:46:53.187Z,23.01
2016-04-15T04:47:53.205Z,23.02
2016-04-15T04:48:53.207Z,23.01
2016-04-15T04:49:53.210Z,23.02
2016-04-15T04:50:53.212Z,23.1
2016-04-15T04:51:53.263Z,23.04
2016-04-15T04:52:53.338Z,23.02
2016-04-15T04:53:53.251Z,23.02
2016-04-15T04:54:53.259Z,23.01
2016-04-15T04:55:53.276Z,23
2016-04-15T04:56:53.279Z,23.04
2016-04-15T04:57:53.281Z,23.07
2016-04-15T04:58:53.269Z,22.98
2016-04-15T04:59:53.272Z,23
2016-04-15T05:00:53.103Z,22.98
2016-04-15T05:01:53.292Z,23.01
2016-04-15T05:02:53.280Z,23.05
2016-04-15T05:03:53.298Z,22.98
2016-04-15T05:04:53.300Z,23.02
2016-04-15T05:05:53.303Z,23.04
2016-04-15T05:06:53.305Z,23
2016-04-15T05:07:53.324Z,23
2016-04-15T05:08:53.327Z,23.02
2016-04-15T05:09:53.329Z,23.09
2016-04-15T05:10:53.333Z,23.07
2016-04-15T05:11:53.335Z,22.98
2016-04-15T05:12:53.354Z,23
2016-04-15T05:13:53.357Z,23.07
2016-04-15T05:14:53.359Z,23.15
2016-04-15T05:15:53.362Z,23.15
2016-04-15T05:16:53.380Z,23.15
2016-04-15T05:17:53.367Z,23.02
2016-04-15T05:18:53.385Z,23.02
2016-04-15T05:19:53.403Z,23.09
2016-04-15T05:20:53.390Z,23.04
2016-04-15T05:21:53.409Z,23.02
2016-04-15T05:22:53.411Z,23.07
2016-04-15T05:23:53.414Z,23.01
2016-04-15T05:24:53.417Z,23.07
2016-04-15T05:25:53.419Z,23.13
2016-04-15T05:26:53.422Z,23
2016-04-15T05:27:53.440Z,23.07
2016-04-15T05:28:53.443Z,23.01
2016-04-15T05:29:53.446Z,23.15
2016-04-15T05:30:53.495Z,23.05
2016-04-15T05:31:53.467Z,23.07
2016-04-15T05:32:53.485Z,23.09
2016-04-15T05:33:53.472Z,23.01
2016-04-15T05:34:53.475Z,23.07
2016-04-15T05:35:53.493Z,23.09
2016-04-15T05:36:53.481Z,23.04
2016-04-15T05:37:53.499Z,22.94
2016-04-15T05:38:53.502Z,23.02
2016-04-15T05:39:53.520Z,23
2016-04-15T05:40:53.507Z,23
2016-04-15T05:41:53.525Z,22.97
2016-04-15T05:42:53.527Z,23.05
2016-04-15T05:43:53.546Z,23.07
2016-04-15T05:44:53.533Z,23
2016-04-15T05:45:53.926Z,23.02
2016-04-15T05:46:53.554Z,23.05
2016-04-15T05:47:53.557Z,23
2016-04-15T05:48:53.575Z,23.09
2016-04-15T05:49:53.578Z,23.13
2016-04-15T05:50:53.581Z,23.16
2016-04-15T05:51:53.583Z,23.13
2016-04-15T05:52:53.587Z,23.15
2016-04-15T05:53:53.589Z,23.1
2016-04-15T05:54:53.607Z,23.13
2016-04-15T05:55:53.610Z,23.2
2016-04-15T05:56:53.612Z,23.13
2016-04-15T05:57:53.615Z,23.13
2016-04-15T05:58:53.617Z,22.98
2016-04-15T05:59:53.636Z,23.07
2016-04-15T06:00:53.951Z,23.15
2016-04-15T06:01:53.641Z,23.15
2016-04-15T06:02:53.644Z,23.15
2016-04-15T06:03:53.661Z,23.01
2016-04-15T06:04:53.664Z,23.07
2016-04-15T06:05:53.667Z,23.15
2016-04-15T06:06:53.669Z,23.19
2016-04-15T06:07:53.672Z,23.16
2016-04-15T06:08:53.707Z,23.27
2016-04-15T06:09:54.053Z,23.13
2016-04-15T06:10:53.697Z,23
2016-04-15T06:11:53.700Z,23
2016-04-15T06:12:53.718Z,23.01
2016-04-15T06:13:53.721Z,23.05
2016-04-15T06:14:53.707Z,23.15
2016-04-15T06:15:54.163Z,23.05
2016-04-15T06:16:53.729Z,23.13
2016-04-15T06:17:53.731Z,23
2016-04-15T06:18:53.734Z,23
2016-04-15T06:19:53.737Z,23
2016-04-15T06:20:53.755Z,23
2016-04-15T06:21:53.764Z,23.09
2016-04-15T06:22:53.783Z,22.98
2016-04-15T06:23:53.770Z,23.01
2016-04-15T06:24:53.773Z,23.04
2016-04-15T06:25:53.806Z,23
2016-04-15T06:26:53.794Z,23.01
2016-04-15T06:27:53.785Z,23
2016-04-15T06:28:53.804Z,23.05
2016-04-15T06:29:53.806Z,23
2016-04-15T06:30:53.793Z,23
2016-04-15T06:31:53.827Z,23.07
2016-04-15T06:32:53.846Z,23
2016-04-15T06:33:53.833Z,23.01
2016-04-15T06:34:53.852Z,23.01
2016-04-15T06:35:53.854Z,23
2016-04-15T06:36:53.857Z,23.01
2016-04-15T06:37:53.875Z,23.04
2016-04-15T06:38:53.862Z,23.02
2016-04-15T06:39:53.865Z,23
2016-04-15T06:40:53.867Z,23.01
2016-04-15T06:41:53.870Z,23
2016-04-15T06:42:53.888Z,23.04
2016-04-15T06:43:53.906Z,23
2016-04-15T06:44:53.893Z,23.04
2016-04-15T06:45:53.802Z,23.01
2016-04-15T06:46:53.898Z,23
2016-04-15T06:47:53.933Z,23.02
2016-04-15T06:48:53.935Z,23.04
2016-04-15T06:49:53.939Z,23.02
2016-04-15T06:50:53.925Z,23.01
2016-04-15T06:51:53.944Z,23.05
2016-04-15T06:52:53.947Z,23.13
2016-04-15T06:53:53.949Z,23.15
2016-04-15T06:54:54.077Z,23.15
2016-04-15T06:55:53.954Z,23.17
2016-04-15T06:56:53.972Z,23.15
2016-04-15T06:57:53.975Z,23.15
2016-04-15T06:58:53.978Z,23.13
2016-04-15T06:59:53.981Z,23.16
2016-04-15T07:00:54.062Z,23.17
2016-04-15T07:01:53.986Z,23.2
2016-04-15T07:02:54.005Z,23.17
2016-04-15T07:03:54.007Z,23.22
2016-04-15T07:04:54.026Z,23.19
2016-04-15T07:05:54.013Z,23.33
2016-04-15T07:06:54.015Z,23.17
2016-04-15T07:07:54.049Z,23.15
2016-04-15T07:08:54.052Z,23.16
2016-04-15T07:09:54.039Z,23.15
2016-04-15T07:10:54.042Z,23.13
2016-04-15T07:11:54.059Z,23
2016-04-15T07:12:54.062Z,23
2016-04-15T07:13:54.081Z,23.02
2016-04-15T07:14:54.068Z,23.01
2016-04-15T07:15:54.087Z,23
2016-04-15T07:16:54.089Z,23.07
2016-04-15T07:17:54.107Z,23.05
2016-04-15T07:18:54.095Z,23.02
2016-04-15T07:19:54.098Z,23.02
2016-04-15T07:20:54.131Z,23.01
2016-04-15T07:21:53.982Z,23.09
2016-04-15T07:22:54.125Z,23.07
2016-04-15T07:23:54.128Z,23.02
2016-04-15T07:24:54.130Z,23.1
2016-04-15T07:25:54.133Z,23
2016-04-15T07:26:54.151Z,23.04
2016-04-15T07:27:54.143Z,23.02
2016-04-15T07:28:54.163Z,22.98
2016-04-15T07:29:54.165Z,23.01
2016-04-15T07:30:54.168Z,23.02
2016-04-15T07:31:54.171Z,23.04
2016-04-15T07:32:54.189Z,23.05
2016-04-15T07:33:54.192Z,23.19
2016-04-15T07:34:54.194Z,23.33
2016-04-15T07:35:54.197Z,23.4
2016-04-15T07:36:54.215Z,23.43
2016-04-15T07:37:54.217Z,23.61
2016-04-15T07:38:54.220Z,23.75
2016-04-15T07:39:54.223Z,23.72
2016-04-15T07:40:54.241Z,23.91
2016-04-15T07:41:54.245Z,24.05
2016-04-15T07:42:54.247Z,23.97
2016-04-15T07:43:54.250Z,24.27
2016-04-15T07:44:54.253Z,24.27
2016-04-15T07:45:54.270Z,24.47
2016-04-15T07:46:54.258Z,24.55
2016-04-15T07:47:54.275Z,24.65
2016-04-15T07:48:54.278Z,24.67
2016-04-15T07:49:54.281Z,24.81
2016-04-15T07:50:54.299Z,24.88
2016-04-15T07:51:54.302Z,25.03
2016-04-15T07:52:54.304Z,24.98
2016-04-15T07:53:54.323Z,25.15
2016-04-15T07:54:54.310Z,25.1
2016-04-15T07:55:54.328Z,25.13
2016-04-15T07:56:54.316Z,25.35
2016-04-15T07:57:54.334Z,25.39
2016-04-15T07:58:54.337Z,25.43
2016-04-15T07:59:54.339Z,25.39
2016-04-15T08:00:54.342Z,25.51
2016-04-15T08:01:54.360Z,25.52
2016-04-15T08:02:54.378Z,25.6
2016-04-15T08:03:54.365Z,25.62
2016-04-15T08:04:54.368Z,25.57
2016-04-15T08:05:54.371Z,25.6
2016-04-15T08:06:54.390Z,25.6
2016-04-15T08:07:54.393Z,25.72
2016-04-15T08:08:54.395Z,25.73
2016-04-15T08:09:54.414Z,25.72
2016-04-15T08:10:57.462Z,25.76
2016-04-15T08:11:54.419Z,25.8
2016-04-15T08:12:54.437Z,25.79
2016-04-15T08:13:54.424Z,25.87
2016-04-15T08:14:54.442Z,25.95
2016-04-15T08:15:54.444Z,26.01
2016-04-15T08:16:54.448Z,26.15
2016-04-15T08:17:54.450Z,26.1
2016-04-15T08:18:54.469Z,26.12
2016-04-15T08:19:54.472Z,26.13
2016-04-15T08:20:54.474Z,26.12
2016-04-15T08:21:54.483Z,26.07
2016-04-15T08:22:54.486Z,26.09
2016-04-15T08:23:54.503Z,26.07
2016-04-15T08:24:54.506Z,25.98
2016-04-15T08:25:54.508Z,26.1
2016-04-15T08:26:54.527Z,26.21
2016-04-15T08:27:54.530Z,26.3
2016-04-15T08:28:54.532Z,26.47
2016-04-15T08:29:54.551Z,26.33
2016-04-15T08:30:54.538Z,26.35
2016-04-15T08:31:54.577Z,26.23
2016-04-15T08:32:54.606Z,26.3
2016-04-15T08:33:54.667Z,26.35
2016-04-15T08:34:54.728Z,26.44
2016-04-15T08:35:54.774Z,26.5
2016-04-15T08:36:54.800Z,26.54
2016-04-15T08:37:54.834Z,26.69
2016-04-15T08:38:54.836Z,26.76
2016-04-15T08:39:54.885Z,26.65
2016-04-15T08:40:54.888Z,26.65
2016-04-15T08:41:54.920Z,26.52
2016-04-15T08:42:54.913Z,26.54
2016-04-15T08:43:54.936Z,26.51
2016-04-15T08:44:54.945Z,26.43
2016-04-15T08:45:54.969Z,26.33
2016-04-15T08:46:55.304Z,26.26
2016-04-15T08:47:54.997Z,26.17
2016-04-15T08:48:55.001Z,26.33
2016-04-15T08:49:55.240Z,26.32
2016-04-15T08:50:55.010Z,26.36
2016-04-15T08:51:55.030Z,26.37
2016-04-15T08:52:55.034Z,26.4
2016-04-15T08:53:55.053Z,26.33
2016-04-15T08:54:55.057Z,26.5
2016-04-15T08:55:55.060Z,26.57
2016-04-15T08:56:55.063Z,26.7
2016-04-15T08:57:55.066Z,26.67
2016-04-15T08:58:55.084Z,26.55
2016-04-15T08:59:55.088Z,26.5
2016-04-15T09:00:55.106Z,26.57
2016-04-15T09:01:55.109Z,26.39
2016-04-15T09:02:55.112Z,26.2
2016-04-15T09:03:55.115Z,26.09
2016-04-15T09:04:55.118Z,26.1
2016-04-15T09:05:55.137Z,26.07
2016-04-15T09:06:55.123Z,25.98
2016-04-15T09:07:55.157Z,25.83
2016-04-15T09:08:55.144Z,25.94
2016-04-15T09:09:55.147Z,25.9
2016-04-15T09:10:55.165Z,25.9
2016-04-15T09:11:55.167Z,25.83
2016-04-15T09:12:55.186Z,25.83
2016-04-15T09:13:55.188Z,25.79
2016-04-15T09:14:55.191Z,25.67
2016-04-15T09:15:55.194Z,25.75
2016-04-15T09:16:55.213Z,25.83
2016-04-15T09:17:55.216Z,25.87
2016-04-15T09:18:55.218Z,25.92
2016-04-15T09:19:55.221Z,25.92
2016-04-15T09:20:55.238Z,26.01
2016-04-15T09:21:55.257Z,26.12
2016-04-15T09:22:55.244Z,26.1
2016-04-15T09:23:55.247Z,26.12
2016-04-15T09:24:55.265Z,26.15
2016-04-15T09:25:55.269Z,26.13
2016-04-15T09:26:55.286Z,26.15
2016-04-15T09:27:55.289Z,25.97
2016-04-15T09:28:55.291Z,25.97
2016-04-15T09:29:55.310Z,26.01
2016-04-15T09:30:55.313Z,25.99
2016-04-15T09:31:55.315Z,26.01
2016-04-15T09:32:55.318Z,25.91
2016-04-15T09:33:55.320Z,25.97
2016-04-15T09:34:55.354Z,26.02
2016-04-15T09:35:55.342Z,26.05
2016-04-15T09:36:55.345Z,26.09
2016-04-15T09:37:55.363Z,26.01
2016-04-15T09:38:55.365Z,26.05
2016-04-15T09:39:55.384Z,26.13
2016-04-15T09:40:55.370Z,26.09
2016-04-15T09:41:55.389Z,25.97
2016-04-15T09:42:55.392Z,26.01
2016-04-15T09:43:55.394Z,25.99
2016-04-15T09:44:55.413Z,25.97
2016-04-15T09:45:55.415Z,25.92
2016-04-15T09:46:55.418Z,25.83
2016-04-15T09:47:55.421Z,25.87
2016-04-15T09:48:55.439Z,25.87
2016-04-15T09:49:55.442Z,25.85
2016-04-15T09:50:55.444Z,25.76
2016-04-15T09:51:55.463Z,25.76
2016-04-15T09:52:55.465Z,25.79
2016-04-15T09:53:55.468Z,25.79
2016-04-15T09:54:55.330Z,25.72
2016-04-15T09:55:55.489Z,25.83
2016-04-15T09:56:55.492Z,25.83
2016-04-15T09:57:55.495Z,25.76
2016-04-15T09:58:55.529Z,25.76
2016-04-15T09:59:55.516Z,25.76
2016-04-15T10:00:55.518Z,25.88
2016-04-15T10:01:55.537Z,25.82
2016-04-15T10:02:55.523Z,25.85
2016-04-15T10:03:55.557Z,25.72
2016-04-15T10:04:55.560Z,25.73
2016-04-15T10:05:55.562Z,25.7
2016-04-15T10:06:55.597Z,25.62
2016-04-15T10:07:55.568Z,25.65
2016-04-15T10:08:55.415Z,25.75
2016-04-15T10:09:55.574Z,25.72
2016-04-15T10:10:55.592Z,25.6
2016-04-15T10:11:55.595Z,25.64
2016-04-15T10:12:55.613Z,25.75
2016-04-15T10:13:55.616Z,25.67
2016-04-15T10:14:55.603Z,25.69
2016-04-15T10:15:55.621Z,25.69
2016-04-15T10:16:55.624Z,25.72
2016-04-15T10:17:55.626Z,25.76
2016-04-15T10:18:55.644Z,25.75
2016-04-15T10:19:55.647Z,25.76
2016-04-15T10:20:55.666Z,25.7
2016-04-15T10:21:55.669Z,25.75
2016-04-15T10:22:55.671Z,25.79
2016-04-15T10:23:55.674Z,25.77
2016-04-15T10:24:55.738Z,25.76
2016-04-15T10:25:55.741Z,25.85
2016-04-15T10:26:55.713Z,25.8
2016-04-15T10:27:55.716Z,25.76
2016-04-15T10:28:55.703Z,25.88
2016-04-15T10:29:55.753Z,25.83
2016-04-15T10:30:55.740Z,25.97
2016-04-15T10:31:55.774Z,26.18
2016-04-15T10:32:55.745Z,26.13
2016-04-15T10:33:55.748Z,26.13
2016-04-15T10:34:55.765Z,26.21
2016-04-15T10:35:55.753Z,26.12
2016-04-15T10:36:55.771Z,26.1
2016-04-15T10:37:55.773Z,25.98
2016-04-15T10:38:55.777Z,26.12
2016-04-15T10:39:55.779Z,26.17
2016-04-15T10:40:55.782Z,25.98
2016-04-15T10:41:55.800Z,26.01
2016-04-15T10:42:55.819Z,26.01
2016-04-15T10:43:55.822Z,26.01
2016-04-15T10:44:55.824Z,25.91
2016-04-15T10:45:55.842Z,26.07
2016-04-15T10:46:55.766Z,26.26
2016-04-15T10:47:55.847Z,26.33
2016-04-15T10:48:55.850Z,26.45
2016-04-15T10:49:55.883Z,26.37
2016-04-15T10:50:55.872Z,26.45
2016-04-15T10:51:55.874Z,26.52
2016-04-15T10:52:55.877Z,26.55
2016-04-15T10:53:55.894Z,26.55
2016-04-15T10:54:55.897Z,26.47
2016-04-15T10:55:55.916Z,26.4
2016-04-15T10:56:55.903Z,26.44
2016-04-15T10:57:55.922Z,26.39
2016-04-15T10:58:55.925Z,26.5
2016-04-15T10:59:55.943Z,26.55
2016-04-15T11:00:55.946Z,26.45
2016-04-15T11:01:56.027Z,26.44
2016-04-15T11:02:55.966Z,26.45
2016-04-15T11:03:55.954Z,26.4
2016-04-15T11:04:55.971Z,26.44
2016-04-15T11:05:55.974Z,26.47
2016-04-15T11:06:55.992Z,26.5
2016-04-15T11:07:55.995Z,26.5
2016-04-15T11:08:56.014Z,26.43
2016-04-15T11:09:56.017Z,26.44
2016-04-15T11:10:56.020Z,26.45
2016-04-15T11:11:56.022Z,26.52
2016-04-15T11:12:56.025Z,26.51
2016-04-15T11:13:56.028Z,26.57
2016-04-15T11:14:56.045Z,26.5
2016-04-15T11:15:56.048Z,26.58
2016-04-15T11:16:55.941Z,26.57
2016-04-15T11:17:56.053Z,26.65
2016-04-15T11:18:56.071Z,26.52
2016-04-15T11:19:56.074Z,26.72
2016-04-15T11:20:56.092Z,26.73
2016-04-15T11:21:56.095Z,26.55
2016-04-15T11:22:56.098Z,26.5
2016-04-15T11:23:56.116Z,26.44
2016-04-15T11:24:56.119Z,26.44
2016-04-15T11:25:56.121Z,26.32
2016-04-15T11:26:56.140Z,26.13
2016-04-15T11:27:56.143Z,26.09
2016-04-15T11:28:56.146Z,26.12
2016-04-15T11:29:56.149Z,26.09
2016-04-15T11:30:56.167Z,26.2
2016-04-15T11:31:56.404Z,26.15
2016-04-15T11:32:56.172Z,26.01
2016-04-15T11:33:56.174Z,25.97
2016-04-15T11:34:56.193Z,25.95
2016-04-15T11:35:56.196Z,25.99
2016-04-15T11:36:56.214Z,25.97
2016-04-15T11:37:56.217Z,25.98
2016-04-15T11:38:56.234Z,25.98
2016-04-15T11:39:56.238Z,25.87
2016-04-15T11:40:56.240Z,25.85
2016-04-15T11:41:56.243Z,25.76
2016-04-15T11:42:56.261Z,25.75
2016-04-15T11:43:56.279Z,25.75
2016-04-15T11:44:56.267Z,25.72
2016-04-15T11:45:56.269Z,25.73
2016-04-15T11:46:56.319Z,25.73
2016-04-15T11:47:56.275Z,25.79
2016-04-15T11:48:56.292Z,25.76
2016-04-15T11:49:56.295Z,25.76
2016-04-15T11:50:56.298Z,25.87
2016-04-15T11:51:56.300Z,25.82
2016-04-15T11:52:56.335Z,25.91
2016-04-15T11:53:56.322Z,25.85
2016-04-15T11:54:56.340Z,25.76
2016-04-15T11:55:56.358Z,25.76
2016-04-15T11:56:56.346Z,25.75
2016-04-15T11:57:56.364Z,25.83
2016-04-15T11:58:56.367Z,25.87
2016-04-15T11:59:56.369Z,25.83
2016-04-15T12:00:56.372Z,25.79
2016-04-15T12:01:56.421Z,25.7
2016-04-15T12:02:56.393Z,25.79
2016-04-15T12:03:56.411Z,25.72
2016-04-15T12:04:56.398Z,25.76
2016-04-15T12:05:56.417Z,25.76
2016-04-15T12:06:56.420Z,25.82
2016-04-15T12:07:56.437Z,25.8
2016-04-15T12:08:56.347Z,25.72
2016-04-15T12:09:56.445Z,25.73
2016-04-15T12:10:56.448Z,25.77
2016-04-15T12:11:56.545Z,25.79
2016-04-15T12:12:56.469Z,25.79
2016-04-15T12:13:56.472Z,25.73
2016-04-15T12:14:56.474Z,25.76
2016-04-15T12:15:56.492Z,25.75
2016-04-15T12:16:56.573Z,25.85
2016-04-15T12:17:56.498Z,25.87
2016-04-15T12:18:56.516Z,25.87
2016-04-15T12:19:56.519Z,25.98
2016-04-15T12:20:56.522Z,25.87
2016-04-15T12:21:56.368Z,25.92
2016-04-15T12:22:56.527Z,25.87
2016-04-15T12:23:56.545Z,25.9
2016-04-15T12:24:56.563Z,25.91
2016-04-15T12:25:56.560Z,25.87
2016-04-15T12:26:56.266Z,25.87
2016-04-15T12:27:56.581Z,25.77
2016-04-15T12:28:56.600Z,25.83
2016-04-15T12:29:56.587Z,25.87
2016-04-15T12:30:56.606Z,25.83
2016-04-15T12:31:56.592Z,25.83
2016-04-15T12:32:56.611Z,25.77
2016-04-15T12:33:56.613Z,25.92
2016-04-15T12:34:56.616Z,25.87
2016-04-15T12:35:56.650Z,25.99
2016-04-15T12:36:56.637Z,25.92
2016-04-15T12:37:56.656Z,25.94
2016-04-15T12:38:56.658Z,25.95
2016-04-15T12:39:56.661Z,26.02
2016-04-15T12:40:56.663Z,25.97
2016-04-15T12:41:56.682Z,25.91
2016-04-15T12:42:56.685Z,25.97
2016-04-15T12:43:56.687Z,25.99
2016-04-15T12:44:56.690Z,26.01
2016-04-15T12:45:56.535Z,26.01
2016-04-15T12:46:56.727Z,25.94
2016-04-15T12:47:56.760Z,25.95
2016-04-15T12:48:56.716Z,25.98
2016-04-15T12:49:56.719Z,25.98
2016-04-15T12:50:56.737Z,25.97
2016-04-15T12:51:56.740Z,25.98
2016-04-15T12:52:56.742Z,25.92
2016-04-15T12:53:56.760Z,25.85
2016-04-15T12:54:56.762Z,25.73
2016-04-15T12:55:56.765Z,25.85
2016-04-15T12:56:56.800Z,25.76
2016-04-15T12:57:56.787Z,25.76
2016-04-15T12:58:56.806Z,25.76
2016-04-15T12:59:56.823Z,25.85